Anna Maria, FL

3:04 PM EDT on August 27, 2016 (GMT -0400)
Anna Maria Island | | Change Station

Elev 20 ft 27.53 °N, 82.73 °W | Updated 8 seconds ago

Mostly Cloudy
Mostly Cloudy
90.0 °F
Feels Like 104 °F
N
7.2
Wind Variable Wind from North
Gusts 7.4 mph

Today
High -- | Low -- °F
--% Chance of Precip.
Yesterday
High -- | Low -- °F
Precip. -- in
Pressure 29.88 in
Visibility 10.0 miles
Clouds Scattered Clouds 4300 ft
Mostly Cloudy 5500 ft
Mostly Cloudy 7000 ft
Heat Index 104 °F
Dew Point 78 °F
Humidity 67%
Rainfall 0.00 in
Snow Depth Not available.
7:07 AM 7:56 PM
Waning Crescent, 22% visible
METAR KSRQ 271853Z 08007KT 10SM SCT043 BKN055 BKN070 33/23 A2989 RMK AO2 LTG DSNT NE AND E SLP119 T03330228
Pressure 29.88 in
Visibility 10.0 miles
Clouds Scattered Clouds 4300 ft
Mostly Cloudy 5500 ft
Mostly Cloudy 7000 ft
Heat Index 104 °F
Dew Point 78 °F
Humidity 67%
Rainfall 0.00 in
Snow Depth Not available.
7:07 AM 7:56 PM
Waning Crescent, 22% visible
METAR KSRQ 271853Z 08007KT 10SM SCT043 BKN055 BKN070 33/23 A2989 RMK AO2 LTG DSNT NE AND E SLP119 T03330228

10-Day Weather Forecast

Almanac

Astronomy

Aug. 27, 2016 Rise Set
Actual Time
Civil Twilight
Nautical Twilight
Astronomical Twilight
Moon
Length of Visible Light
Length of Day
Tomorrow will be .
, % of the Moon is Illuminated

Today's Extremes

State Highs State Lows

Community

WunderPhotos

Upload Photos

1,935,399 photos uploaded!

WunderBlog® & News

Nearby

Air Quality

  Air Quality AQ Index Pollutant
Not available.

Snow Depth

Station Depth Elevation

Earthquake Activity

City Distance Mag. Time & Date
Minimum magnitude displayed is 2.5.

Coastal Water Temperatures

Place Temperature

Stations

Nearby Weather Stations

Station Location Temp. Windchill Dew Point Humidity Wind Precip. Elev Updated Type
                   

Watches & Warnings

There are currently no watches in effect.